createdAt,value
2019-01-12T00:01:07.493Z,23.67
2019-01-12T00:03:35.090Z,21.67
2019-01-12T00:06:03.017Z,23.53
2019-01-12T00:08:30.594Z,19.67
2019-01-12T00:10:58.197Z,22.97
2019-01-12T00:13:26.544Z,24.70
2019-01-12T00:15:54.114Z,26.20
2019-01-12T00:18:21.713Z,24.80
2019-01-12T00:20:49.281Z,17.50
2019-01-12T00:23:16.892Z,16.53
2019-01-12T00:25:44.455Z,18.40
2019-01-12T00:28:12.031Z,13.07
2019-01-12T00:30:40.396Z,11.83
2019-01-12T00:33:07.968Z,9.35
2019-01-12T00:35:35.897Z,7.70
2019-01-12T00:38:03.469Z,7.73
2019-01-12T00:40:31.037Z,6.43
2019-01-12T00:42:58.937Z,7.60
2019-01-12T00:45:27.274Z,10.70
2019-01-12T00:47:54.881Z,8.63
2019-01-12T00:50:23.216Z,7.37
2019-01-12T00:52:50.784Z,8.83
2019-01-12T00:55:18.392Z,10.90
2019-01-12T00:57:45.964Z,7.43
2019-01-12T01:00:16.415Z,8.43
2019-01-12T01:02:43.984Z,11.70
2019-01-12T01:05:11.559Z,8.40
2019-01-12T01:07:39.163Z,12.97
2019-01-12T01:10:10.636Z,12.27
2019-01-12T01:12:38.244Z,13.00
2019-01-12T01:15:05.824Z,10.87
2019-01-12T01:17:33.394Z,12.47
2019-01-12T01:20:01.019Z,12.60
2019-01-12T01:22:28.977Z,10.07
2019-01-12T01:24:56.593Z,11.07
2019-01-12T01:27:24.932Z,9.93
2019-01-12T01:29:52.499Z,8.13
2019-01-12T01:32:20.579Z,11.73
2019-01-12T01:34:48.144Z,11.87
2019-01-12T01:37:15.781Z,9.90
2019-01-12T01:39:43.351Z,10.13
2019-01-12T01:42:10.920Z,10.03
2019-01-12T01:44:38.512Z,12.87
2019-01-12T01:47:06.847Z,10.73
2019-01-12T01:49:34.456Z,9.67
2019-01-12T01:52:02.031Z,10.27
2019-01-12T01:54:29.606Z,8.27
2019-01-12T01:56:57.201Z,8.77
2019-01-12T01:59:24.778Z,11.60
2019-01-12T02:01:52.380Z,10.80
2019-01-12T02:04:19.967Z,10.80
2019-01-12T02:06:47.538Z,7.77
2019-01-12T02:09:15.130Z,7.90
2019-01-12T02:11:42.694Z,8.90
2019-01-12T02:14:10.743Z,11.60
2019-01-12T02:16:38.313Z,8.60
2019-01-12T02:19:05.880Z,10.02
2019-01-12T02:21:33.473Z,9.03
2019-01-12T02:24:01.050Z,10.23
2019-01-12T02:26:28.657Z,9.83
2019-01-12T02:28:56.229Z,7.77
2019-01-12T02:31:23.814Z,10.27
2019-01-12T02:33:52.191Z,7.80
2019-01-12T02:36:20.538Z,7.57
2019-01-12T02:38:48.148Z,8.30
2019-01-12T02:41:15.709Z,8.00
2019-01-12T02:43:43.278Z,6.67
2019-01-12T02:46:10.867Z,6.47
2019-01-12T02:48:38.440Z,6.00
2019-01-12T02:51:06.054Z,5.30
2019-01-12T02:53:33.633Z,5.77
2019-01-12T02:56:01.203Z,4.77
2019-01-12T02:58:28.801Z,5.77
2019-01-12T03:00:56.388Z,5.20
2019-01-12T03:03:23.981Z,4.90
2019-01-12T03:05:51.553Z,5.47
2019-01-12T03:08:19.123Z,4.80
2019-01-12T03:10:46.716Z,5.63
2019-01-12T03:13:14.286Z,4.33
2019-01-12T03:15:42.657Z,5.77
2019-01-12T03:18:10.219Z,4.73
2019-01-12T03:20:37.783Z,4.27
2019-01-12T03:23:05.611Z,4.57
2019-01-12T03:25:33.194Z,7.47
2019-01-12T03:28:00.814Z,5.30
2019-01-12T03:30:28.403Z,6.77
2019-01-12T03:32:55.959Z,7.30
2019-01-12T03:35:23.539Z,7.63
2019-01-12T03:37:51.113Z,8.03
2019-01-12T03:40:18.720Z,7.75
2019-01-12T03:42:46.285Z,9.67
2019-01-12T03:45:13.859Z,7.30
2019-01-12T03:47:41.446Z,7.53
2019-01-12T03:50:09.020Z,9.33
2019-01-12T03:52:36.605Z,10.68
2019-01-12T03:55:04.977Z,9.37
2019-01-12T03:57:33.316Z,8.70
2019-01-12T04:00:00.890Z,8.60
2019-01-12T04:02:28.491Z,8.10
2019-01-12T04:04:56.841Z,10.47
2019-01-12T04:07:24.418Z,10.70
2019-01-12T04:09:52.807Z,12.20
2019-01-12T04:12:21.153Z,11.03
2019-01-12T04:14:48.725Z,8.13
2019-01-12T04:17:16.318Z,10.60
2019-01-12T04:19:43.889Z,11.70
2019-01-12T04:22:11.492Z,10.30
2019-01-12T04:24:39.060Z,9.70
2019-01-12T04:27:06.622Z,8.60
2019-01-12T04:29:34.783Z,7.67
2019-01-12T04:32:02.353Z,8.50
2019-01-12T04:34:29.943Z,9.30
2019-01-12T04:36:58.300Z,10.23
2019-01-12T04:39:25.869Z,8.83
2019-01-12T04:41:53.625Z,9.77
2019-01-12T04:44:21.204Z,10.18
2019-01-12T04:46:48.829Z,8.90
2019-01-12T04:49:16.402Z,8.50
2019-01-12T04:51:43.975Z,7.70
2019-01-12T04:54:11.567Z,8.68
2019-01-12T04:56:39.906Z,7.53
2019-01-12T04:59:07.511Z,10.00
2019-01-12T05:01:35.844Z,11.40
2019-01-12T05:04:03.413Z,7.47
2019-01-12T05:06:31.009Z,9.03
2019-01-12T05:08:58.584Z,7.33
2019-01-12T05:11:26.184Z,10.67
2019-01-12T05:13:53.752Z,8.27
2019-01-12T05:16:21.328Z,7.27
2019-01-12T05:18:48.922Z,7.80
2019-01-12T05:21:17.252Z,8.37
2019-01-12T05:23:44.865Z,10.30
2019-01-12T05:26:13.213Z,5.97
2019-01-12T05:28:40.776Z,6.27
2019-01-12T05:31:08.365Z,9.65
2019-01-12T05:33:36.705Z,10.55
2019-01-12T05:36:04.306Z,9.53
2019-01-12T05:38:32.640Z,6.33
2019-01-12T05:41:00.209Z,7.43
2019-01-12T05:43:27.813Z,10.10
2019-01-12T05:45:55.411Z,6.60
2019-01-12T05:48:23.011Z,7.77
2019-01-12T05:50:50.582Z,8.90
2019-01-12T05:53:18.926Z,8.13
2019-01-12T05:55:46.517Z,10.43
2019-01-12T05:58:14.092Z,10.53
2019-01-12T06:00:41.706Z,9.33
2019-01-12T06:03:09.281Z,12.17
2019-01-12T06:05:36.852Z,9.23
2019-01-12T06:08:04.800Z,11.25
2019-01-12T06:10:32.376Z,13.75
2019-01-12T06:12:59.981Z,8.77
2019-01-12T06:15:27.553Z,13.33
2019-01-12T06:17:55.119Z,14.53
2019-01-12T06:20:22.718Z,11.03
2019-01-12T06:22:50.300Z,13.17
2019-01-12T06:25:17.924Z,10.97
2019-01-12T06:27:45.497Z,12.53
2019-01-12T06:30:15.525Z,12.57
2019-01-12T06:32:43.127Z,12.90
2019-01-12T06:35:11.465Z,13.03
2019-01-12T06:37:39.106Z,12.50
2019-01-12T06:40:07.412Z,9.67
2019-01-12T06:42:34.984Z,11.50
2019-01-12T06:45:02.588Z,13.45
2019-01-12T06:47:30.163Z,10.57
2019-01-12T06:49:57.773Z,14.63
2019-01-12T06:52:25.346Z,11.17
2019-01-12T06:54:53.691Z,9.17
2019-01-12T06:57:21.297Z,12.60
2019-01-12T06:59:49.640Z,12.47
2019-01-12T07:02:17.252Z,14.30
2019-01-12T07:04:45.357Z,15.10
2019-01-12T07:07:12.927Z,12.30
2019-01-12T07:09:40.527Z,12.47
2019-01-12T07:12:08.871Z,13.60
2019-01-12T07:14:36.474Z,16.77
2019-01-12T07:17:04.817Z,14.47
2019-01-12T07:19:32.388Z,13.90
2019-01-12T07:21:59.988Z,15.93
2019-01-12T07:24:27.588Z,21.43
2019-01-12T07:26:55.203Z,21.50
2019-01-12T07:29:23.549Z,16.90
2019-01-12T07:31:51.126Z,20.20
2019-01-12T07:34:18.723Z,18.97
2019-01-12T07:36:46.337Z,21.40
2019-01-12T07:39:13.933Z,19.87
2019-01-12T07:41:41.506Z,19.97
2019-01-12T07:44:09.083Z,23.93
2019-01-12T07:46:36.683Z,26.03
2019-01-12T07:49:04.281Z,23.60
2019-01-12T07:51:32.436Z,27.07
2019-01-12T07:54:00.013Z,26.90
2019-01-12T07:56:27.607Z,25.50
2019-01-12T07:58:55.213Z,25.67
2019-01-12T08:01:22.782Z,24.17
2019-01-12T08:03:50.680Z,22.90
2019-01-12T08:06:18.257Z,26.53
2019-01-12T08:08:45.832Z,23.27
2019-01-12T08:11:13.430Z,21.37
2019-01-12T08:13:41.001Z,29.47
2019-01-12T08:16:09.384Z,25.00
2019-01-12T08:18:37.730Z,28.97
2019-01-12T08:21:05.305Z,28.60
2019-01-12T08:23:32.920Z,30.85
2019-01-12T08:26:00.498Z,32.08
2019-01-12T08:28:28.678Z,30.17
2019-01-12T08:30:56.262Z,29.23
2019-01-12T08:33:23.831Z,29.27
2019-01-12T08:35:51.440Z,30.83
2019-01-12T08:38:19.023Z,26.90
2019-01-12T08:40:46.639Z,27.73
2019-01-12T08:43:14.970Z,24.40
2019-01-12T08:45:42.546Z,26.00
2019-01-12T08:48:10.153Z,24.40
2019-01-12T08:50:37.734Z,24.03
2019-01-12T08:53:05.374Z,23.47
2019-01-12T08:55:32.956Z,21.53
2019-01-12T08:58:00.536Z,21.10
2019-01-12T09:00:28.172Z,23.67
2019-01-12T09:02:55.733Z,25.20
2019-01-12T09:05:23.309Z,24.70
2019-01-12T09:07:50.909Z,28.10
2019-01-12T09:10:19.705Z,30.40
2019-01-12T09:12:46.840Z,26.93
2019-01-12T09:15:14.485Z,30.80
2019-01-12T09:17:42.051Z,31.57
2019-01-12T09:20:09.634Z,31.13
2019-01-12T09:22:37.241Z,32.57
2019-01-12T09:25:04.823Z,28.40
2019-01-12T09:27:32.415Z,28.07
2019-01-12T09:30:00.013Z,25.70
2019-01-12T09:32:28.352Z,23.87
2019-01-12T09:34:55.985Z,28.17
2019-01-12T09:37:23.602Z,28.97
2019-01-12T09:39:54.022Z,26.83
2019-01-12T09:42:21.620Z,27.03
2019-01-12T09:44:49.192Z,29.47
2019-01-12T09:47:16.801Z,28.80
2019-01-12T09:49:44.395Z,26.23
2019-01-12T09:52:11.983Z,32.07
2019-01-12T09:54:39.589Z,29.53
2019-01-12T09:57:07.166Z,28.33
2019-01-12T09:59:35.540Z,30.37
2019-01-12T10:02:03.885Z,29.60
2019-01-12T10:04:31.465Z,26.37
2019-01-12T10:06:59.069Z,28.60
2019-01-12T10:09:26.648Z,30.00
2019-01-12T10:11:54.309Z,27.10
2019-01-12T10:14:22.622Z,26.20
2019-01-12T10:16:50.212Z,27.43
2019-01-12T10:19:18.582Z,26.77
2019-01-12T10:21:46.183Z,26.10
2019-01-12T10:24:14.100Z,26.33
2019-01-12T10:26:41.667Z,20.47
2019-01-12T10:29:09.249Z,24.15
2019-01-12T10:31:37.622Z,22.60
2019-01-12T10:34:05.213Z,20.07
2019-01-12T10:36:32.816Z,20.30
2019-01-12T10:39:00.384Z,17.83
2019-01-12T10:41:27.959Z,19.42
2019-01-12T10:43:55.581Z,20.60
2019-01-12T10:46:23.163Z,16.10
2019-01-12T10:48:50.791Z,19.33
2019-01-12T10:51:18.379Z,19.00
2019-01-12T10:53:45.962Z,21.60
2019-01-12T10:56:13.558Z,18.30
2019-01-12T10:58:41.902Z,16.00
2019-01-12T11:01:09.586Z,19.13
2019-01-12T11:03:37.122Z,19.43
2019-01-12T11:06:04.725Z,19.13
2019-01-12T11:08:32.319Z,19.30
2019-01-12T11:10:59.910Z,21.63
2019-01-12T11:13:27.546Z,18.63
2019-01-12T11:15:55.127Z,20.07
2019-01-12T11:18:22.706Z,19.73
2019-01-12T11:20:50.310Z,21.53
2019-01-12T11:23:17.905Z,21.13
2019-01-12T11:25:45.528Z,20.77
2019-01-12T11:28:13.103Z,22.77
2019-01-12T11:30:40.692Z,22.30
2019-01-12T11:33:08.295Z,24.77
2019-01-12T11:35:35.881Z,21.07
2019-01-12T11:38:03.503Z,22.40
2019-01-12T11:40:31.103Z,27.77
2019-01-12T11:42:58.683Z,24.73
2019-01-12T11:45:26.291Z,24.00
2019-01-12T11:47:53.871Z,25.50
2019-01-12T11:50:22.251Z,22.53
2019-01-12T11:52:50.637Z,26.20
2019-01-12T11:55:18.173Z,22.80
2019-01-12T11:57:45.771Z,24.20
2019-01-12T12:00:13.341Z,22.60
2019-01-12T12:02:40.976Z,26.53
2019-01-12T12:05:09.318Z,21.90
2019-01-12T12:07:36.892Z,20.80
2019-01-12T12:10:04.489Z,22.50
2019-01-12T12:12:32.066Z,25.07
2019-01-12T12:14:59.712Z,23.47
2019-01-12T12:17:27.247Z,19.60
2019-01-12T12:19:57.246Z,20.80
2019-01-12T12:22:24.853Z,20.00
2019-01-12T12:24:52.442Z,19.90
2019-01-12T12:27:25.986Z,18.43
2019-01-12T12:29:47.617Z,18.37
2019-01-12T12:32:16.682Z,21.00
2019-01-12T12:34:43.568Z,20.90
2019-01-12T12:37:11.919Z,21.27
2019-01-12T12:39:39.525Z,19.77
2019-01-12T12:42:07.108Z,19.50
2019-01-12T12:44:34.702Z,18.70
2019-01-12T12:47:02.305Z,19.97
2019-01-12T12:49:29.899Z,18.10
2019-01-12T12:51:57.505Z,15.23
2019-01-12T12:54:25.083Z,17.37
2019-01-12T12:56:53.431Z,18.30
2019-01-12T12:59:21.019Z,18.90
2019-01-12T13:01:49.362Z,16.33
2019-01-12T13:04:16.976Z,29.53
2019-01-12T13:06:44.555Z,24.10
2019-01-12T13:09:12.141Z,40.00
2019-01-12T13:11:39.749Z,18.77
2019-01-12T13:14:08.098Z,19.97
2019-01-12T13:16:35.711Z,24.27
2019-01-12T13:19:03.286Z,22.77
2019-01-12T13:21:30.858Z,18.77
2019-01-12T13:23:58.457Z,18.53
2019-01-12T13:26:26.027Z,17.93
2019-01-12T13:28:54.400Z,17.30
2019-01-12T13:31:21.975Z,18.53
2019-01-12T13:33:50.313Z,16.00
2019-01-12T13:36:23.604Z,21.37
2019-01-12T13:38:51.155Z,15.93
2019-01-12T13:41:18.764Z,16.33
2019-01-12T13:43:47.112Z,17.00
2019-01-12T13:46:14.685Z,20.03
2019-01-12T13:48:42.289Z,15.00
2019-01-12T13:51:09.866Z,14.53
2019-01-12T13:53:37.459Z,16.47
2019-01-12T13:56:05.107Z,17.40
2019-01-12T13:58:35.505Z,17.80
2019-01-12T14:01:03.131Z,16.00
2019-01-12T14:03:31.022Z,18.33
2019-01-12T14:05:58.314Z,17.83
2019-01-12T14:08:25.909Z,15.80
2019-01-12T14:10:53.530Z,14.97
2019-01-12T14:13:21.110Z,16.27
2019-01-12T14:15:48.689Z,19.65
2019-01-12T14:18:22.449Z,17.53
2019-01-12T14:20:43.901Z,15.53
2019-01-12T14:23:11.481Z,15.33
2019-01-12T14:25:39.100Z,14.50
2019-01-12T14:28:06.679Z,13.87
2019-01-12T14:30:34.278Z,11.20
2019-01-12T14:33:01.871Z,9.63
2019-01-12T14:35:29.439Z,10.27
2019-01-12T14:37:57.069Z,10.47
2019-01-12T14:40:24.635Z,8.87
2019-01-12T14:42:52.995Z,16.80
2019-01-12T14:45:23.571Z,7.53
2019-01-12T14:47:51.161Z,9.85
2019-01-12T14:50:19.170Z,7.27
2019-01-12T14:52:46.757Z,8.30
2019-01-12T14:55:17.323Z,8.13
2019-01-12T14:57:44.926Z,7.70
2019-01-12T15:00:18.350Z,9.23
2019-01-12T15:02:46.707Z,8.73
2019-01-12T15:05:14.403Z,7.57
2019-01-12T15:07:41.991Z,7.97
2019-01-12T15:10:09.581Z,9.40
2019-01-12T15:12:37.145Z,5.70
2019-01-12T15:15:04.764Z,5.40
2019-01-12T15:17:32.327Z,6.43
2019-01-12T15:19:59.901Z,7.00
2019-01-12T15:22:27.526Z,6.50
2019-01-12T15:24:55.863Z,7.57
2019-01-12T15:27:23.435Z,5.93
2019-01-12T15:29:51.075Z,4.87
2019-01-12T15:32:18.650Z,7.07
2019-01-12T15:34:46.225Z,4.80
2019-01-12T15:37:13.826Z,5.33
2019-01-12T15:39:41.396Z,4.90
2019-01-12T15:42:09.091Z,3.93
2019-01-12T15:44:36.654Z,5.50
2019-01-12T15:47:04.219Z,6.57
2019-01-12T15:49:31.811Z,7.53
2019-01-12T15:51:59.375Z,3.93
2019-01-12T15:54:27.759Z,4.23
2019-01-12T15:56:56.109Z,3.23
2019-01-12T15:59:23.684Z,3.27
2019-01-12T16:01:51.319Z,3.67
2019-01-12T16:04:18.888Z,3.90
2019-01-12T16:06:46.459Z,4.20
2019-01-12T16:09:14.074Z,3.30
2019-01-12T16:11:41.677Z,3.97
2019-01-12T16:14:09.292Z,3.17
2019-01-12T16:16:37.623Z,2.70
2019-01-12T16:19:05.191Z,2.43
2019-01-12T16:21:32.787Z,5.40
2019-01-12T16:24:00.380Z,2.90
2019-01-12T16:26:27.956Z,3.10
2019-01-12T16:28:55.580Z,2.00
2019-01-12T16:31:23.142Z,3.53
2019-01-12T16:33:50.711Z,3.70
2019-01-12T16:36:19.202Z,2.13
2019-01-12T16:38:46.783Z,2.27
2019-01-12T16:41:14.354Z,1.77
2019-01-12T16:43:41.984Z,2.00
2019-01-12T16:46:09.557Z,2.40
2019-01-12T16:48:37.131Z,3.43
2019-01-12T16:51:04.753Z,4.00
2019-01-12T16:53:32.333Z,2.83
2019-01-12T16:55:59.910Z,4.55
2019-01-12T16:58:30.689Z,4.10
2019-01-12T17:00:55.859Z,2.53
2019-01-12T17:03:23.440Z,2.10
2019-01-12T17:05:51.861Z,1.73
2019-01-12T17:08:19.429Z,3.20
2019-01-12T17:10:47.006Z,4.17
2019-01-12T17:13:14.622Z,3.80
2019-01-12T17:15:42.967Z,4.40
2019-01-12T17:18:10.544Z,3.00
2019-01-12T17:20:38.147Z,2.40
2019-01-12T17:23:05.718Z,2.95
2019-01-12T17:25:33.324Z,2.80
2019-01-12T17:28:00.899Z,2.80
2019-01-12T17:30:28.472Z,2.60
2019-01-12T17:32:56.108Z,2.17
2019-01-12T17:35:24.140Z,2.77
2019-01-12T17:37:51.713Z,2.90
2019-01-12T17:40:19.325Z,1.90
2019-01-12T17:42:47.661Z,5.43
2019-01-12T17:45:15.249Z,2.87
2019-01-12T17:47:42.844Z,3.33
2019-01-12T17:50:13.089Z,4.60
2019-01-12T17:52:40.660Z,3.20
2019-01-12T17:55:12.434Z,3.00
2019-01-12T17:57:39.634Z,3.10
2019-01-12T18:00:07.986Z,2.73
2019-01-12T18:02:36.137Z,3.55
2019-01-12T18:05:03.711Z,2.50
2019-01-12T18:07:31.275Z,3.03
2019-01-12T18:09:59.655Z,2.33
2019-01-12T18:12:27.227Z,5.00
2019-01-12T18:14:54.843Z,2.93
2019-01-12T18:17:22.403Z,3.22
2019-01-12T18:19:49.972Z,2.57
2019-01-12T18:22:17.605Z,3.90
2019-01-12T18:24:45.159Z,3.33
2019-01-12T18:27:13.503Z,6.30
2019-01-12T18:29:41.079Z,5.03
2019-01-12T18:32:08.699Z,9.53
2019-01-12T18:34:36.276Z,12.43
2019-01-12T18:37:03.844Z,9.03
2019-01-12T18:39:31.461Z,13.13
2019-01-12T18:41:59.030Z,5.07
2019-01-12T18:44:26.640Z,4.60
2019-01-12T18:46:54.979Z,3.73
2019-01-12T18:49:22.552Z,2.87
2019-01-12T18:51:50.123Z,6.80
2019-01-12T18:54:17.734Z,5.13
2019-01-12T18:56:46.093Z,8.27
2019-01-12T18:59:13.643Z,7.67
2019-01-12T19:01:42.321Z,5.33
2019-01-12T19:04:09.895Z,11.77
2019-01-12T19:06:37.458Z,5.30
2019-01-12T19:09:05.101Z,9.93
2019-01-12T19:11:32.672Z,5.37
2019-01-12T19:14:00.238Z,4.83
2019-01-12T19:16:28.485Z,12.30
2019-01-12T19:18:55.989Z,2.73
2019-01-12T19:21:23.718Z,5.93
2019-01-12T19:23:51.303Z,7.53
2019-01-12T19:26:18.882Z,14.43
2019-01-12T19:28:46.577Z,11.03
2019-01-12T19:31:14.108Z,8.47
2019-01-12T19:33:41.681Z,5.40
2019-01-12T19:36:09.302Z,5.80
2019-01-12T19:38:36.887Z,3.33
2019-01-12T19:41:04.454Z,4.33
2019-01-12T19:43:32.052Z,2.87
2019-01-12T19:45:59.616Z,3.97
2019-01-12T19:48:27.234Z,2.20
2019-01-12T19:50:54.809Z,4.10
2019-01-12T19:53:23.151Z,2.40
2019-01-12T19:55:50.773Z,2.90
2019-01-12T19:58:18.344Z,2.67
2019-01-12T20:00:45.914Z,2.47
2019-01-12T20:03:13.528Z,3.90
2019-01-12T20:05:41.098Z,7.77
2019-01-12T20:08:09.436Z,4.77
2019-01-12T20:10:37.046Z,6.63
2019-01-12T20:13:05.382Z,8.70
2019-01-12T20:15:32.957Z,4.17
2019-01-12T20:18:00.794Z,4.50
2019-01-12T20:20:29.085Z,5.20
2019-01-12T20:22:56.660Z,4.50
2019-01-12T20:25:25.766Z,3.73
2019-01-12T20:27:53.338Z,5.00
2019-01-12T20:30:26.483Z,5.27
2019-01-12T20:32:56.867Z,8.60
2019-01-12T20:35:30.920Z,4.33
2019-01-12T20:38:02.403Z,4.07
2019-01-12T20:40:35.400Z,5.03
2019-01-12T20:43:20.877Z,12.83
2019-01-12T20:46:03.402Z,14.80
2019-01-12T20:48:52.173Z,11.70
2019-01-12T20:51:44.727Z,17.30
2019-01-12T20:54:31.050Z,28.53
2019-01-12T20:57:07.852Z,21.97
2019-01-12T20:59:49.976Z,14.37
2019-01-12T21:02:17.548Z,13.33
2019-01-12T21:04:47.594Z,18.10
2019-01-12T21:07:27.360Z,10.82
2019-01-12T21:10:15.581Z,14.30
2019-01-12T21:13:08.058Z,5.90
2019-01-12T21:15:35.647Z,5.93
2019-01-12T21:18:03.220Z,6.47
2019-01-12T21:20:32.032Z,6.10
2019-01-12T21:22:59.603Z,5.62
2019-01-12T21:25:27.939Z,5.67
2019-01-12T21:27:55.531Z,7.57
2019-01-12T21:30:23.877Z,6.57
2019-01-12T21:32:51.754Z,5.40
2019-01-12T21:35:19.572Z,6.17
2019-01-12T21:37:47.148Z,8.33
2019-01-12T21:40:14.749Z,6.50
2019-01-12T21:42:42.316Z,5.73
2019-01-12T21:45:09.927Z,7.87
2019-01-12T21:47:37.496Z,8.83
2019-01-12T21:50:05.113Z,6.67
2019-01-12T21:52:32.673Z,5.33
2019-01-12T21:55:00.291Z,8.23
2019-01-12T21:57:27.863Z,6.57
2019-01-12T21:59:55.437Z,8.67
2019-01-12T22:02:23.930Z,6.33
2019-01-12T22:04:51.507Z,7.12
2019-01-12T22:07:19.076Z,6.27
2019-01-12T22:09:47.447Z,7.90
2019-01-12T22:12:15.795Z,8.63
2019-01-12T22:14:43.428Z,9.83
2019-01-12T22:17:11.027Z,7.97
2019-01-12T22:19:38.563Z,8.07
2019-01-12T22:22:06.169Z,7.20
2019-01-12T22:24:33.839Z,8.67
2019-01-12T22:27:01.585Z,7.57
2019-01-12T22:29:29.312Z,10.40
2019-01-12T22:31:57.680Z,10.47
2019-01-12T22:34:25.441Z,8.50
2019-01-12T22:36:53.084Z,9.57
2019-01-12T22:39:20.623Z,9.47
2019-01-12T22:41:48.304Z,10.20
2019-01-12T22:44:15.867Z,11.10
2019-01-12T22:46:44.097Z,22.70
2019-01-12T22:49:11.696Z,26.30
2019-01-12T22:51:39.278Z,23.20
2019-01-12T22:54:07.662Z,23.70
2019-01-12T22:56:35.242Z,15.23
2019-01-12T22:59:02.933Z,12.93
2019-01-12T23:01:32.194Z,11.97
2019-01-12T23:03:59.805Z,11.70
2019-01-12T23:06:27.388Z,14.60
2019-01-12T23:08:55.067Z,17.57
2019-01-12T23:11:22.651Z,13.90
2019-01-12T23:13:50.273Z,11.17
2019-01-12T23:16:17.869Z,21.43
2019-01-12T23:18:45.457Z,14.87
2019-01-12T23:21:13.065Z,15.57
2019-01-12T23:23:40.645Z,14.13
2019-01-12T23:26:08.279Z,14.83
2019-01-12T23:28:35.870Z,15.97
2019-01-12T23:31:03.487Z,13.27
2019-01-12T23:33:31.117Z,11.87
2019-01-12T23:35:58.702Z,14.30
2019-01-12T23:38:26.702Z,13.10
2019-01-12T23:40:54.288Z,11.83
2019-01-12T23:43:21.953Z,15.20
2019-01-12T23:45:49.527Z,14.17
2019-01-12T23:48:17.106Z,15.73
2019-01-12T23:50:44.760Z,16.23
2019-01-12T23:53:12.362Z,16.07
2019-01-12T23:55:39.948Z,13.53
2019-01-12T23:58:08.327Z,14.87
